Terminal Aerodrome Forecast
Issued by NWS

Home | Current Version | Previous Version | Text Only | Print | Product List | Glossary On
Versions: 1 2 3 4 5 6 7 8 9 10 11 12 13 14
000
FTUS46 KSGX 241546 AAB
TAFSNA
TAF AMD
KSNA 241546Z 2416/2512 21004KT P6SM SCT012 BKN028
     FM241900 21010KT P6SM SCT035
     FM250400 20006KT P6SM BKN030
     FM250900 VRB03KT P6SM BKN025=

USA.gov is the U.S. government's official web portal to all federal, state and local government web resources and services.